WXM80 ListenWXM80 Stop

You find our weather info also at:

UK Metoffice

WeatherCloud

Weather Underground

Northeastern Weather Network

AWEKAS

Citizen Weather Observer Program (CWOP)

HAMweather, WeatherForYou, PWS Weather


Weather Underground History page Text

Daily Summary for February 9, 2017 Units:  English    Metric   Both
« Previous Day
Next Day »
Daily Weekly Monthly Yearly Custom
  High: Low: Average:
Temperature: 40.4 °F 18.5 °F 28.6 °F
Dew Point: 36.3 °F 10.0 °F 24.6 °F
Humidity: 97 % 69 % 86 %
Wind Speed: 16.9 mph 0.5 mph 8.6 mph
Wind Gust: 29.0 mph - -
Wind:- - SSW
Pressure: 30.02 in 29.44 in -
Precipitation: 0.00 in    
Historical Graphs
 
 
Tabular Data for February 9, 2017
Time Temperature Dew Point Pressure Wind Wind Speed Wind Gust Humidity Rainfall Rate (Hourly)
00:02 40.4 °F 35.9 °F 29.68 in ENE 2.3 mph 3.5 mph 84 % 0.00 in
00:07 40.3 °F 35.8 °F 29.68 in ENE 3.1 mph 4.6 mph 84 % 0.00 in
00:12 40.3 °F 36.1 °F 29.68 in ENE 4.2 mph 7.0 mph 85 % 0.00 in
00:17 40.2 °F 36.3 °F 29.68 in NE 2.1 mph 6.9 mph 86 % 0.00 in
00:22 40.2 °F 36.3 °F 29.68 in ENE 1.2 mph 3.5 mph 86 % 0.00 in
00:27 40.2 °F 36.3 °F 29.68 in ENE 0.5 mph 2.3 mph 86 % 0.00 in
00:33 40.0 °F 35.9 °F 29.68 in ENE 3.3 mph 6.9 mph 85 % 0.00 in
00:38 39.9 °F 35.5 °F 29.67 in ENE 3.7 mph 5.0 mph 84 % 0.00 in
00:43 39.8 °F 35.1 °F 29.67 in ENE 4.1 mph 6.9 mph 83 % 0.00 in
00:48 39.8 °F 35.1 °F 29.66 in ENE 5.5 mph 8.1 mph 83 % 0.00 in
00:53 39.7 °F 34.3 °F 29.66 in ENE 6.8 mph 9.2 mph 81 % 0.00 in
00:58 39.6 °F 33.3 °F 29.66 in ENE 8.2 mph 11.5 mph 78 % 0.00 in
01:03 39.5 °F 32.9 °F 29.64 in NE 8.1 mph 10.4 mph 77 % 0.00 in
01:08 39.4 °F 32.8 °F 29.64 in ENE 9.0 mph 12.0 mph 77 % 0.00 in
01:13 39.3 °F 33.0 °F 29.64 in ENE 9.1 mph 11.5 mph 78 % 0.00 in
01:18 39.2 °F 32.9 °F 29.63 in ENE 8.0 mph 12.0 mph 78 % 0.00 in
01:23 39.1 °F 32.9 °F 29.63 in ENE 7.0 mph 12.0 mph 78 % 0.00 in
01:28 39.1 °F 32.8 °F 29.63 in ENE 8.0 mph 12.0 mph 78 % 0.00 in
01:33 39.0 °F 32.7 °F 29.63 in ENE 8.0 mph 13.0 mph 78 % 0.00 in
01:38 39.0 °F 32.7 °F 29.64 in ENE 7.0 mph 12.0 mph 78 % 0.00 in
01:43 38.9 °F 32.6 °F 29.64 in ENE 7.0 mph 12.0 mph 78 % 0.00 in
01:48 38.9 °F 32.6 °F 29.64 in ENE 6.0 mph 10.0 mph 78 % 0.00 in
01:53 38.9 °F 32.9 °F 29.64 in NE 5.9 mph 9.2 mph 79 % 0.00 in
01:58 38.8 °F 32.8 °F 29.64 in ENE 5.9 mph 9.2 mph 79 % 0.00 in
02:03 38.8 °F 32.5 °F 29.63 in NE 6.0 mph 11.5 mph 78 % 0.00 in
02:09 38.7 °F 32.4 °F 29.63 in ENE 3.3 mph 8.1 mph 78 % 0.00 in
02:14 38.7 °F 32.1 °F 29.63 in ENE 5.7 mph 9.0 mph 77 % 0.00 in
02:19 38.6 °F 32.0 °F 29.63 in NE 4.7 mph 7.0 mph 77 % 0.00 in
02:24 38.6 °F 31.7 °F 29.62 in ENE 5.8 mph 9.0 mph 76 % 0.00 in
02:29 38.5 °F 30.9 °F 29.61 in ENE 8.7 mph 11.5 mph 74 % 0.00 in
02:34 38.4 °F 31.2 °F 29.61 in East 7.3 mph 11.5 mph 75 % 0.00 in
02:39 38.4 °F 30.8 °F 29.60 in ENE 7.3 mph 10.4 mph 74 % 0.00 in
02:44 38.3 °F 31.1 °F 29.60 in ENE 7.4 mph 9.2 mph 75 % 0.00 in
02:49 38.3 °F 31.1 °F 29.60 in ENE 6.3 mph 10.4 mph 75 % 0.00 in
02:55 38.2 °F 30.6 °F 29.59 in ENE 8.1 mph 11.5 mph 74 % 0.00 in
03:00 38.2 °F 30.6 °F 29.59 in ENE 6.4 mph 10.4 mph 74 % 0.00 in
03:05 38.2 °F 31.3 °F 29.59 in NE 4.1 mph 9.2 mph 76 % 0.00 in
03:10 38.2 °F 31.3 °F 29.58 in NE 5.0 mph 9.2 mph 76 % 0.00 in
03:15 38.1 °F 31.2 °F 29.58 in NE 5.3 mph 8.1 mph 76 % 0.00 in
03:20 38.0 °F 31.1 °F 29.57 in NE 6.8 mph 10.4 mph 76 % 0.00 in
03:25 38.0 °F 31.1 °F 29.57 in ENE 6.0 mph 13.8 mph 76 % 0.00 in
03:30 38.0 °F 30.8 °F 29.57 in NE 3.1 mph 9.2 mph 75 % 0.00 in
03:35 37.9 °F 30.7 °F 29.57 in ENE 3.4 mph 9.2 mph 75 % 0.00 in
03:40 37.9 °F 31.0 °F 29.57 in NNE 3.8 mph 8.1 mph 76 % 0.00 in
03:46 37.9 °F 31.0 °F 29.57 in ENE 3.5 mph 6.9 mph 76 % 0.00 in
03:51 37.7 °F 30.5 °F 29.57 in NE 7.0 mph 9.2 mph 75 % 0.00 in
03:56 37.6 °F 29.7 °F 29.57 in ENE 5.7 mph 10.4 mph 73 % 0.00 in
04:01 37.6 °F 30.1 °F 29.58 in NE 4.3 mph 6.0 mph 74 % 0.00 in
04:06 37.6 °F 30.1 °F 29.58 in NNE 7.5 mph 11.5 mph 74 % 0.00 in
04:11 37.5 °F 30.0 °F 29.59 in NNE 7.1 mph 11.5 mph 74 % 0.00 in
04:16 37.5 °F 29.3 °F 29.58 in NNE 8.9 mph 13.8 mph 72 % 0.00 in
04:21 37.5 °F 29.3 °F 29.58 in NNE 5.0 mph 9.2 mph 72 % 0.00 in
04:26 37.5 °F 30.0 °F 29.58 in NNE 7.4 mph 12.0 mph 74 % 0.00 in
04:31 37.5 °F 29.6 °F 29.57 in NNE 9.1 mph 15.0 mph 73 % 0.00 in
04:36 37.2 °F 30.0 °F 29.58 in NE 8.7 mph 11.5 mph 75 % 0.00 in
04:41 36.9 °F 30.4 °F 29.58 in NNE 6.2 mph 10.0 mph 77 % 0.00 in
04:46 36.7 °F 30.8 °F 29.57 in NE 5.6 mph 8.1 mph 79 % 0.00 in
04:51 36.2 °F 30.9 °F 29.58 in NNE 8.7 mph 11.5 mph 81 % 0.00 in
04:56 35.7 °F 31.0 °F 29.58 in NE 7.6 mph 8.1 mph 83 % 0.00 in
05:01 35.3 °F 31.2 °F 29.57 in North 8.1 mph 11.5 mph 85 % 0.00 in
05:06 34.7 °F 30.9 °F 29.58 in NNE 6.2 mph 11.5 mph 86 % 0.00 in
05:11 34.4 °F 31.2 °F 29.60 in North 3.7 mph 6.9 mph 88 % 0.01 in
05:16 34.1 °F 31.2 °F 29.59 in NNE 5.9 mph 9.0 mph 89 % 0.01 in
05:19 33.8 °F 30.9 °F 29.59 in North 6.0 mph 10.4 mph 89 % 0.01 in
05:24 33.6 °F 31.0 °F 29.58 in NNE 5.5 mph 11.0 mph 90 % 0.02 in
05:30 33.5 °F 30.9 °F 29.57 in NNE 6.6 mph 9.2 mph 90 % 0.03 in
05:35 33.2 °F 30.9 °F 29.55 in NE 6.8 mph 12.7 mph 91 % 0.04 in
05:40 33.1 °F 31.0 °F 29.55 in NE 5.9 mph 9.2 mph 92 % 0.05 in
05:45 33.0 °F 30.9 °F 29.55 in North 7.6 mph 13.0 mph 92 % 0.06 in
05:50 32.8 °F 30.7 °F 29.55 in NNE 8.8 mph 11.5 mph 92 % 0.07 in
05:55 32.7 °F 30.9 °F 29.55 in North 8.5 mph 12.7 mph 93 % 0.08 in
06:00 32.6 °F 30.8 °F 29.54 in North 9.2 mph 12.7 mph 93 % 0.09 in
06:05 32.5 °F 30.7 °F 29.54 in NNE 5.8 mph 10.0 mph 93 % 0.09 in
06:10 32.4 °F 30.9 °F 29.54 in NNE 10.6 mph 15.0 mph 94 % 0.09 in
06:15 32.4 °F 30.9 °F 29.55 in NNE 10.4 mph 15.0 mph 94 % 0.10 in
06:20 32.3 °F 30.8 °F 29.55 in NE 10.4 mph 12.7 mph 94 % 0.10 in
06:25 32.2 °F 30.7 °F 29.56 in NE 9.5 mph 11.5 mph 94 % 0.10 in
06:30 32.1 °F 30.6 °F 29.55 in North 10.0 mph 13.8 mph 94 % 0.10 in
06:35 32.0 °F 30.5 °F 29.55 in NNE 8.2 mph 15.0 mph 94 % 0.10 in
06:40 31.9 °F 30.4 °F 29.55 in North 6.5 mph 13.8 mph 94 % 0.09 in
06:45 31.7 °F 30.2 °F 29.55 in NNE 9.0 mph 16.0 mph 94 % 0.09 in
06:50 31.5 °F 30.0 °F 29.55 in NNE 8.2 mph 11.5 mph 94 % 0.09 in
06:51 31.5 °F 30.0 °F 29.55 in NE 10.7 mph 16.0 mph 94 % 0.09 in
06:56 31.5 °F 30.2 °F 29.55 in NNE 7.5 mph 12.7 mph 95 % 0.09 in
07:01 31.4 °F 30.1 °F 29.54 in NE 9.6 mph 15.0 mph 95 % 0.09 in
07:06 31.4 °F 30.1 °F 29.54 in NNW 8.7 mph 12.0 mph 95 % 0.09 in
07:11 31.4 °F 30.1 °F 29.53 in NNE 7.8 mph 11.5 mph 95 % 0.10 in
07:16 31.4 °F 30.1 °F 29.53 in NNE 8.1 mph 13.8 mph 95 % 0.10 in
07:21 31.2 °F 29.9 °F 29.53 in North 6.1 mph 13.8 mph 95 % 0.10 in
07:26 31.1 °F 29.8 °F 29.52 in North 8.2 mph 12.7 mph 95 % 0.10 in
07:31 31.0 °F 29.7 °F 29.52 in NE 8.1 mph 15.0 mph 95 % 0.11 in
07:36 30.9 °F 29.6 °F 29.52 in North 8.9 mph 15.0 mph 95 % 0.11 in
07:42 30.9 °F 29.6 °F 29.52 in North 9.1 mph 14.0 mph 95 % 0.10 in
07:47 30.8 °F 29.5 °F 29.52 in NNE 7.6 mph 15.0 mph 95 % 0.10 in
07:52 30.7 °F 29.4 °F 29.52 in North 10.8 mph 13.8 mph 95 % 0.10 in
07:57 30.7 °F 29.4 °F 29.52 in North 9.7 mph 15.0 mph 95 % 0.11 in
08:02 30.7 °F 29.4 °F 29.52 in North 8.9 mph 11.5 mph 95 % 0.10 in
08:07 30.7 °F 29.4 °F 29.52 in North 10.1 mph 19.6 mph 95 % 0.11 in
08:12 30.6 °F 29.3 °F 29.51 in NW 8.9 mph 12.7 mph 95 % 0.11 in
08:17 30.6 °F 29.3 °F 29.51 in NNE 11.3 mph 15.0 mph 95 % 0.11 in
08:22 30.5 °F 29.5 °F 29.51 in North 7.9 mph 19.6 mph 96 % 0.11 in
08:27 30.6 °F 29.6 °F 29.51 in North 12.0 mph 14.0 mph 96 % 0.11 in
08:32 30.6 °F 29.6 °F 29.50 in North 8.9 mph 13.8 mph 96 % 0.11 in
08:37 30.7 °F 29.7 °F 29.50 in NNE 8.2 mph 13.8 mph 96 % 0.11 in
08:42 30.8 °F 29.8 °F 29.49 in NNE 10.7 mph 16.1 mph 96 % 0.11 in
08:47 30.9 °F 29.9 °F 29.48 in NNW 8.4 mph 15.0 mph 96 % 0.11 in
08:52 31.0 °F 30.0 °F 29.48 in NE 10.1 mph 17.3 mph 96 % 0.12 in
08:57 31.1 °F 30.1 °F 29.48 in NNE 11.6 mph 17.0 mph 96 % 0.11 in
09:02 31.4 °F 30.4 °F 29.48 in North 13.0 mph 19.6 mph 96 % 0.11 in
09:07 31.5 °F 30.5 °F 29.48 in NE 10.3 mph 16.1 mph 96 % 0.11 in
09:12 31.8 °F 30.8 °F 29.48 in NNE 10.7 mph 25.3 mph 96 % 0.11 in
09:18 32.0 °F 31.2 °F 29.48 in NNE 13.9 mph 26.5 mph 97 % 0.11 in
09:23 32.1 °F 31.3 °F 29.47 in NNE 12.7 mph 19.6 mph 97 % 0.11 in
09:28 32.2 °F 31.4 °F 29.47 in NNE 14.4 mph 24.0 mph 97 % 0.11 in
09:33 32.2 °F 31.4 °F 29.48 in NNE 13.9 mph 22.0 mph 97 % 0.11 in
09:38 32.2 °F 31.4 °F 29.48 in NE 12.7 mph 19.6 mph 97 % 0.11 in
09:43 32.3 °F 31.5 °F 29.47 in NNE 12.9 mph 24.2 mph 97 % 0.11 in
09:48 32.3 °F 31.5 °F 29.47 in North 13.5 mph 26.5 mph 97 % 0.11 in
09:53 32.3 °F 31.5 °F 29.47 in NNE 9.4 mph 17.3 mph 97 % 0.11 in
09:58 32.3 °F 31.5 °F 29.47 in North 11.6 mph 19.0 mph 97 % 0.11 in
10:03 32.2 °F 31.4 °F 29.46 in North 11.3 mph 20.7 mph 97 % 0.11 in
10:08 32.2 °F 31.4 °F 29.46 in North 12.0 mph 23.0 mph 97 % 0.00 in
10:13 32.1 °F 31.3 °F 29.46 in North 12.0 mph 23.0 mph 97 % 0.00 in
10:18 32.0 °F 31.2 °F 29.46 in North 15.0 mph 23.0 mph 97 % 0.00 in
10:23 31.8 °F 31.0 °F 29.46 in NNE 13.0 mph 21.0 mph 97 % 0.00 in
10:28 31.7 °F 30.9 °F 29.46 in North 16.0 mph 29.0 mph 97 % 0.00 in
10:33 31.5 °F 30.7 °F 29.46 in North 15.0 mph 23.0 mph 97 % 0.00 in
10:38 31.3 °F 30.6 °F 29.47 in North 15.0 mph 24.0 mph 97 % 0.00 in
10:43 31.2 °F 30.4 °F 29.46 in North 13.0 mph 20.0 mph 97 % 0.00 in
10:48 31.2 °F 30.4 °F 29.45 in North 14.0 mph 22.0 mph 97 % 0.01 in
10:53 30.9 °F 30.2 °F 29.45 in North 10.0 mph 23.0 mph 97 % 0.00 in
10:58 30.6 °F 29.9 °F 29.46 in NNW 12.3 mph 23.0 mph 97 % 0.04 in
11:03 30.5 °F 29.8 °F 29.46 in North 8.1 mph 13.8 mph 97 % 0.04 in
11:09 30.4 °F 29.7 °F 29.46 in WNW 9.5 mph 18.4 mph 97 % 0.04 in
11:14 30.3 °F 29.6 °F 29.47 in NNE 7.9 mph 12.7 mph 97 % 0.03 in
11:19 30.1 °F 29.4 °F 29.47 in NNW 11.6 mph 23.0 mph 97 % 0.03 in
11:24 29.9 °F 29.2 °F 29.46 in North 9.7 mph 26.5 mph 97 % 0.04 in
11:29 29.7 °F 29.0 °F 29.46 in NNW 9.5 mph 15.0 mph 97 % 0.03 in
11:34 29.6 °F 28.9 °F 29.45 in North 12.0 mph 19.6 mph 97 % 0.03 in
11:39 29.4 °F 28.7 °F 29.45 in North 9.5 mph 15.0 mph 97 % 0.04 in
11:44 29.2 °F 28.2 °F 29.46 in North 9.8 mph 19.6 mph 96 % 0.04 in
11:49 29.1 °F 28.4 °F 29.45 in NNW 9.8 mph 19.6 mph 97 % 0.03 in
11:54 28.9 °F 28.2 °F 29.45 in North 11.6 mph 23.0 mph 97 % 0.03 in
11:59 28.7 °F 28.0 °F 29.45 in NNE 12.4 mph 21.9 mph 97 % 0.04 in
12:04 28.5 °F 27.5 °F 29.44 in NNE 14.1 mph 17.0 mph 96 % 0.04 in
12:09 28.3 °F 27.3 °F 29.45 in NE 11.1 mph 19.6 mph 96 % 0.03 in
12:14 28.3 °F 27.3 °F 29.45 in NNW 10.0 mph 19.6 mph 96 % 0.03 in
12:19 28.2 °F 27.5 °F 29.45 in North 14.1 mph 23.0 mph 97 % 0.02 in
12:25 28.0 °F 27.0 °F 29.46 in NNW 16.9 mph 24.2 mph 96 % 0.03 in
12:30 27.8 °F 26.8 °F 29.45 in NW 11.0 mph 18.4 mph 96 % 0.03 in
12:35 27.8 °F 26.8 °F 29.46 in NW 7.6 mph 18.4 mph 96 % 0.02 in
12:40 27.8 °F 26.8 °F 29.47 in North 7.5 mph 18.4 mph 96 % 0.02 in
12:45 27.7 °F 26.7 °F 29.47 in North 11.0 mph 22.0 mph 96 % 0.02 in
12:50 27.5 °F 26.5 °F 29.47 in NNW 11.3 mph 20.7 mph 96 % 0.02 in
12:55 27.3 °F 26.3 °F 29.47 in NNW 11.0 mph 13.0 mph 96 % 0.02 in
13:00 27.2 °F 26.2 °F 29.48 in NW 8.4 mph 12.7 mph 96 % 0.02 in
13:05 27.1 °F 26.1 °F 29.48 in North 12.5 mph 23.0 mph 96 % 0.02 in
13:10 27.0 °F 26.0 °F 29.49 in NNW 8.1 mph 12.7 mph 96 % 0.02 in
13:15 27.0 °F 26.0 °F 29.49 in WNW 6.9 mph 11.5 mph 96 % 0.02 in
13:20 26.9 °F 25.9 °F 29.49 in NW 9.2 mph 16.1 mph 96 % 0.02 in
13:25 26.9 °F 25.9 °F 29.50 in NW 11.9 mph 18.4 mph 96 % 0.01 in
13:30 26.7 °F 25.7 °F 29.50 in NNW 10.1 mph 17.3 mph 96 % 0.01 in
13:35 26.5 °F 25.5 °F 29.50 in NNW 12.0 mph 15.0 mph 96 % 0.01 in
13:40 26.3 °F 25.3 °F 29.50 in NW 10.1 mph 18.4 mph 96 % 0.01 in
13:45 26.2 °F 25.2 °F 29.51 in North 7.6 mph 15.0 mph 96 % 0.01 in
13:50 26.2 °F 25.2 °F 29.51 in NNE 9.9 mph 18.4 mph 96 % 0.01 in
13:55 26.2 °F 25.2 °F 29.52 in NW 4.4 mph 13.8 mph 96 % 0.00 in
14:00 26.1 °F 25.1 °F 29.52 in NNW 9.7 mph 17.3 mph 96 % 0.00 in
14:05 26.0 °F 25.0 °F 29.53 in North 6.9 mph 15.0 mph 96 % 0.00 in
14:10 25.9 °F 24.9 °F 29.53 in North 5.4 mph 13.8 mph 96 % 0.00 in
14:15 25.8 °F 24.8 °F 29.53 in NW 8.1 mph 13.8 mph 96 % 0.00 in
14:20 25.6 °F 24.4 °F 29.54 in NNW 6.5 mph 17.3 mph 95 % 0.00 in
14:26 25.4 °F 24.2 °F 29.53 in WNW 6.0 mph 10.0 mph 95 % 0.00 in
14:31 25.3 °F 24.1 °F 29.54 in NNW 11.7 mph 19.6 mph 95 % 0.00 in
14:36 25.2 °F 24.0 °F 29.54 in NNW 10.7 mph 20.0 mph 95 % 0.00 in
14:41 25.1 °F 23.9 °F 29.54 in NNW 11.6 mph 21.0 mph 95 % 0.00 in
14:46 24.9 °F 23.7 °F 29.54 in NW 10.4 mph 26.0 mph 95 % 0.00 in
14:51 24.8 °F 23.6 °F 29.54 in North 11.4 mph 18.4 mph 95 % 0.00 in
14:56 24.8 °F 23.6 °F 29.55 in North 10.4 mph 23.0 mph 95 % 0.00 in
15:01 24.8 °F 23.6 °F 29.55 in North 9.7 mph 18.4 mph 95 % 0.00 in
15:06 24.8 °F 23.6 °F 29.56 in NNW 6.5 mph 13.0 mph 95 % 0.00 in
15:11 24.8 °F 23.6 °F 29.57 in NW 10.7 mph 19.6 mph 95 % 0.00 in
15:16 24.8 °F 23.6 °F 29.57 in NW 8.4 mph 19.6 mph 95 % 0.00 in
15:21 24.7 °F 23.5 °F 29.58 in NNW 9.9 mph 18.4 mph 95 % 0.00 in
15:26 24.6 °F 23.4 °F 29.58 in NW 11.2 mph 19.6 mph 95 % 0.00 in
15:31 24.5 °F 23.3 °F 29.58 in NW 8.3 mph 23.0 mph 95 % 0.00 in
15:36 24.5 °F 23.3 °F 29.59 in NNW 6.7 mph 15.0 mph 95 % 0.00 in
15:41 24.4 °F 23.2 °F 29.59 in North 9.7 mph 16.1 mph 95 % 0.00 in
15:46 24.4 °F 22.9 °F 29.59 in NNW 7.7 mph 13.8 mph 94 % 0.00 in
15:51 24.3 °F 22.8 °F 29.60 in NNE 11.1 mph 15.0 mph 94 % 0.00 in
15:56 24.2 °F 22.7 °F 29.60 in NW 8.8 mph 16.1 mph 94 % 0.00 in
16:01 24.2 °F 22.7 °F 29.60 in NNW 7.2 mph 15.0 mph 94 % 0.00 in
16:06 24.2 °F 22.7 °F 29.61 in NNW 8.6 mph 15.0 mph 94 % 0.00 in
16:11 24.2 °F 22.7 °F 29.61 in NW 7.7 mph 12.7 mph 94 % 0.00 in
16:16 24.2 °F 22.7 °F 29.61 in NNW 5.8 mph 8.1 mph 94 % 0.00 in
16:22 24.2 °F 22.7 °F 29.61 in NNW 7.8 mph 15.0 mph 94 % 0.00 in
16:27 24.3 °F 22.8 °F 29.62 in North 8.2 mph 16.0 mph 94 % 0.00 in
16:32 24.2 °F 22.7 °F 29.63 in NW 10.1 mph 20.7 mph 94 % 0.00 in
16:37 24.1 °F 22.6 °F 29.64 in NW 13.7 mph 25.3 mph 94 % 0.00 in
16:42 23.9 °F 22.4 °F 29.64 in WNW 11.6 mph 20.7 mph 94 % 0.00 in
16:47 23.8 °F 22.1 °F 29.65 in NW 9.1 mph 18.4 mph 93 % 0.00 in
16:52 23.6 °F 21.9 °F 29.65 in NW 9.7 mph 18.4 mph 93 % 0.00 in
16:57 23.5 °F 21.5 °F 29.66 in WNW 9.2 mph 19.6 mph 92 % 0.00 in
17:02 23.4 °F 21.4 °F 29.66 in WNW 3.3 mph 17.3 mph 92 % 0.00 in
17:07 23.3 °F 21.3 °F 29.66 in West 6.0 mph 19.6 mph 92 % 0.00 in
17:12 23.3 °F 21.3 °F 29.67 in WNW 11.8 mph 20.0 mph 92 % 0.00 in
17:17 23.2 °F 21.0 °F 29.67 in WNW 4.8 mph 13.8 mph 91 % 0.00 in
17:23 23.1 °F 20.9 °F 29.67 in NW 7.2 mph 11.5 mph 91 % 0.00 in
17:28 23.1 °F 20.9 °F 29.67 in NNW 3.8 mph 8.1 mph 91 % 0.00 in
17:33 23.1 °F 20.9 °F 29.67 in WNW 7.3 mph 12.0 mph 91 % 0.00 in
17:38 23.1 °F 20.6 °F 29.67 in NW 6.0 mph 11.5 mph 90 % 0.00 in
17:43 23.1 °F 20.6 °F 29.68 in West 7.5 mph 16.1 mph 90 % 0.00 in
18:02 23.1 °F 18.7 °F 29.69 in NW 8.5 mph 24.2 mph 83 % 0.00 in
18:07 23.1 °F 18.7 °F 29.70 in NNW 9.9 mph 15.0 mph 83 % 0.00 in
18:12 23.0 °F 18.3 °F 29.70 in WNW 7.9 mph 13.8 mph 82 % 0.00 in
18:17 23.0 °F 18.6 °F 29.71 in NW 6.8 mph 11.5 mph 83 % 0.00 in
18:22 23.0 °F 18.6 °F 29.71 in NNW 5.3 mph 12.7 mph 83 % 0.00 in
18:27 23.0 °F 18.3 °F 29.72 in WNW 10.3 mph 19.6 mph 82 % 0.00 in
18:33 23.1 °F 18.1 °F 29.72 in WNW 7.1 mph 15.0 mph 81 % 0.00 in
18:38 23.1 °F 18.1 °F 29.72 in WNW 6.8 mph 12.7 mph 81 % 0.00 in
18:43 23.0 °F 17.7 °F 29.73 in WNW 6.7 mph 16.1 mph 80 % 0.00 in
18:48 23.0 °F 17.2 °F 29.74 in NW 10.3 mph 10.3 mph 78 % 0.00 in
18:53 22.9 °F 16.8 °F 29.74 in NW 6.0 mph 20.0 mph 77 % 0.00 in
18:58 22.7 °F 16.0 °F 29.75 in West 8.0 mph 17.3 mph 75 % 0.00 in
19:03 22.6 °F 15.9 °F 29.75 in NNW 10.3 mph 15.0 mph 75 % 0.00 in
19:08 22.5 °F 15.5 °F 29.76 in WNW 14.9 mph 20.0 mph 74 % 0.00 in
19:14 22.4 °F 15.7 °F 29.76 in NW 6.9 mph 17.3 mph 75 % 0.00 in
19:19 22.2 °F 15.5 °F 29.77 in NNW 10.1 mph 16.1 mph 75 % 0.00 in
19:24 22.1 °F 15.4 °F 29.77 in WNW 12.1 mph 19.6 mph 75 % 0.00 in
19:29 22.0 °F 15.0 °F 29.78 in NNW 4.6 mph 12.0 mph 74 % 0.00 in
19:34 21.8 °F 14.8 °F 29.78 in NW 8.4 mph 14.0 mph 74 % 0.00 in
19:39 21.6 °F 14.6 °F 29.79 in NW 7.8 mph 13.0 mph 74 % 0.00 in
19:44 21.4 °F 14.1 °F 29.80 in WNW 12.1 mph 13.0 mph 73 % 0.00 in
19:49 21.1 °F 13.5 °F 29.80 in NNW 10.9 mph 17.3 mph 72 % 0.00 in
19:54 20.9 °F 13.3 °F 29.80 in NW 11.2 mph 26.5 mph 72 % 0.00 in
19:59 20.7 °F 13.4 °F 29.81 in West 9.0 mph 16.1 mph 73 % 0.00 in
20:05 20.5 °F 13.2 °F 29.82 in WSW 6.7 mph 17.0 mph 73 % 0.00 in
20:10 20.4 °F 12.5 °F 29.82 in NW 13.0 mph 26.5 mph 71 % 0.00 in
20:15 20.2 °F 12.6 °F 29.83 in WNW 8.4 mph 19.6 mph 72 % 0.00 in
20:20 20.1 °F 12.8 °F 29.83 in NNW 7.0 mph 19.6 mph 73 % 0.00 in
20:26 20.0 °F 12.4 °F 29.84 in SW 5.7 mph 11.5 mph 72 % 0.00 in
20:31 19.8 °F 12.5 °F 29.85 in NW 10.1 mph 16.0 mph 73 % 0.00 in
20:36 19.8 °F 11.6 °F 29.85 in WNW 6.9 mph 16.1 mph 70 % 0.00 in
20:41 19.7 °F 11.8 °F 29.86 in WNW 8.7 mph 16.1 mph 71 % 0.00 in
20:46 19.6 °F 11.7 °F 29.86 in NNW 13.5 mph 19.6 mph 71 % 0.00 in
20:48 19.6 °F 11.7 °F 29.86 in West 8.7 mph 18.0 mph 71 % 0.00 in
20:53 19.5 °F 11.3 °F 29.86 in NNW 9.2 mph 17.3 mph 70 % 0.00 in
20:58 19.4 °F 11.5 °F 29.87 in NW 8.6 mph 20.0 mph 71 % 0.00 in
21:03 19.4 °F 11.5 °F 29.88 in West 8.7 mph 21.9 mph 71 % 0.00 in
21:08 19.3 °F 11.7 °F 29.88 in NW 9.2 mph 17.3 mph 72 % 0.00 in
21:13 19.3 °F 11.4 °F 29.89 in WNW 11.4 mph 18.4 mph 71 % 0.00 in
21:18 19.2 °F 11.0 °F 29.89 in NW 11.0 mph 23.0 mph 70 % 0.00 in
21:23 19.1 °F 11.2 °F 29.90 in West 7.2 mph 13.8 mph 71 % 0.00 in
21:25 19.1 °F 11.2 °F 29.90 in NNW 10.2 mph 19.6 mph 71 % 0.00 in
21:30 19.0 °F 10.8 °F 29.90 in North 9.4 mph 19.6 mph 70 % 0.00 in
21:35 18.9 °F 10.7 °F 29.91 in WNW 8.0 mph 13.8 mph 70 % 0.00 in
21:40 18.9 °F 10.7 °F 29.91 in SW 8.1 mph 18.4 mph 70 % 0.00 in
21:45 18.8 °F 10.6 °F 29.91 in North 9.9 mph 20.0 mph 70 % 0.00 in
21:50 18.8 °F 10.6 °F 29.92 in WNW 10.9 mph 19.6 mph 70 % 0.00 in
21:55 18.7 °F 10.5 °F 29.92 in NW 8.4 mph 19.6 mph 70 % 0.00 in
21:57 18.7 °F 10.9 °F 29.92 in NNW 10.5 mph 17.0 mph 71 % 0.00 in
22:02 18.6 °F 10.8 °F 29.93 in NW 8.6 mph 19.6 mph 71 % 0.00 in
22:07 18.7 °F 10.5 °F 29.94 in NW 6.4 mph 12.0 mph 70 % 0.00 in
22:12 18.6 °F 10.8 °F 29.94 in NW 7.3 mph 17.3 mph 71 % 0.00 in
22:17 18.6 °F 10.4 °F 29.95 in WNW 5.5 mph 15.0 mph 70 % 0.00 in
22:22 18.6 °F 10.8 °F 29.95 in NW 7.2 mph 12.7 mph 71 % 0.00 in
22:27 18.6 °F 10.4 °F 29.95 in NW 8.3 mph 13.8 mph 70 % 0.00 in
22:32 18.5 °F 10.3 °F 29.96 in WNW 6.4 mph 19.6 mph 70 % 0.00 in
22:37 18.5 °F 10.3 °F 29.96 in NNW 11.4 mph 15.0 mph 70 % 0.00 in
22:38 18.5 °F 10.3 °F 29.96 in NW 11.2 mph 16.1 mph 70 % 0.00 in
22:43 18.5 °F 10.0 °F 29.96 in WNW 8.8 mph 15.0 mph 69 % 0.00 in
22:48 18.5 °F 10.3 °F 29.97 in NW 6.8 mph 10.0 mph 70 % 0.00 in
22:53 18.5 °F 10.3 °F 29.97 in West 8.1 mph 18.0 mph 70 % 0.00 in
22:58 18.6 °F 10.4 °F 29.97 in NNW 6.7 mph 11.5 mph 70 % 0.00 in
23:03 18.6 °F 10.1 °F 29.98 in NW 8.3 mph 12.0 mph 69 % 0.00 in
23:08 18.6 °F 10.4 °F 29.98 in WNW 4.2 mph 16.1 mph 70 % 0.00 in
23:13 18.6 °F 10.1 °F 29.99 in NNW 7.5 mph 13.8 mph 69 % 0.00 in
23:18 18.5 °F 10.3 °F 29.99 in WNW 7.8 mph 15.0 mph 70 % 0.00 in
23:23 18.6 °F 10.8 °F 29.99 in West 5.8 mph 12.7 mph 71 % 0.00 in
23:28 18.5 °F 11.3 °F 29.99 in West 7.6 mph 16.1 mph 73 % 0.00 in
23:33 18.6 °F 10.8 °F 30.00 in NNW 8.7 mph 15.0 mph 71 % 0.00 in
23:38 18.7 °F 10.9 °F 30.00 in SW 6.2 mph 11.0 mph 71 % 0.00 in
23:43 18.7 °F 10.9 °F 30.00 in WSW 12.8 mph 20.7 mph 71 % 0.00 in
23:48 18.8 °F 10.6 °F 30.01 in SSW 7.8 mph 17.3 mph 70 % 0.00 in
23:53 18.8 °F 10.6 °F 30.01 in WNW 8.6 mph 24.2 mph 70 % 0.00 in
23:58 18.6 °F 10.4 °F 30.02 in WNW 9.0 mph 14.0 mph 70 % 0.00 in
Crab Meadow Weather
Compliments of Weather Underground - 3 mb

Script developed by  Jim McMurry - jmcmurry@mwt.net Adapted for the template by  Wim van der Kuil - Leuven-Template.eu

Weather Terms: Dew Point - A measure of atmospheric moisture. It is the temperature to which air must be cooled in order to reach saturation (assuming pressure and moisture content are constant).